sensor_id;sensor_type;location;lat;lon;timestamp;P1;durP1;ratioP1;P2;durP2;ratioP2
16137;SDS011;8174;43.550;5.206;2022-09-03T00:02:27;6.75;;;5.93;;
16137;SDS011;8174;43.550;5.206;2022-09-03T00:05:02;8.75;;;6.15;;
16137;SDS011;8174;43.550;5.206;2022-09-03T00:07:35;11.65;;;6.45;;
16137;SDS011;8174;43.550;5.206;2022-09-03T00:10:07;10.27;;;5.95;;
16137;SDS011;8174;43.550;5.206;2022-09-03T00:12:36;9.82;;;5.15;;
16137;SDS011;8174;43.550;5.206;2022-09-03T00:15:06;6.88;;;5.32;;
16137;SDS011;8174;43.550;5.206;2022-09-03T00:17:36;6.60;;;5.57;;
16137;SDS011;8174;43.550;5.206;2022-09-03T00:20:10;9.15;;;5.47;;
16137;SDS011;8174;43.550;5.206;2022-09-03T00:22:41;8.15;;;5.65;;
16137;SDS011;8174;43.550;5.206;2022-09-03T00:25:11;8.18;;;5.55;;
16137;SDS011;8174;43.550;5.206;2022-09-03T00:27:40;7.07;;;5.30;;
16137;SDS011;8174;43.550;5.206;2022-09-03T00:30:10;7.47;;;5.22;;
16137;SDS011;8174;43.550;5.206;2022-09-03T00:32:39;9.32;;;5.05;;
16137;SDS011;8174;43.550;5.206;2022-09-03T00:35:15;6.50;;;4.80;;
16137;SDS011;8174;43.550;5.206;2022-09-03T00:37:45;8.68;;;5.00;;
16137;SDS011;8174;43.550;5.206;2022-09-03T00:40:17;6.18;;;4.75;;
16137;SDS011;8174;43.550;5.206;2022-09-03T00:42:52;7.07;;;5.30;;
16137;SDS011;8174;43.550;5.206;2022-09-03T00:45:25;7.47;;;4.93;;
16137;SDS011;8174;43.550;5.206;2022-09-03T00:48:01;6.78;;;5.20;;
16137;SDS011;8174;43.550;5.206;2022-09-03T00:50:37;7.60;;;5.15;;
16137;SDS011;8174;43.550;5.206;2022-09-03T00:53:09;9.00;;;5.80;;
16137;SDS011;8174;43.550;5.206;2022-09-03T00:55:41;8.23;;;5.63;;
16137;SDS011;8174;43.550;5.206;2022-09-03T00:58:19;8.32;;;5.40;;
16137;SDS011;8174;43.550;5.206;2022-09-03T01:00:49;6.85;;;5.20;;
16137;SDS011;8174;43.550;5.206;2022-09-03T01:03:19;10.88;;;5.43;;
16137;SDS011;8174;43.550;5.206;2022-09-03T01:05:57;6.75;;;5.60;;
16137;SDS011;8174;43.550;5.206;2022-09-03T01:08:34;7.47;;;5.80;;
16137;SDS011;8174;43.550;5.206;2022-09-03T01:11:10;9.02;;;6.05;;
16137;SDS011;8174;43.550;5.206;2022-09-03T01:13:46;8.27;;;5.82;;
16137;SDS011;8174;43.550;5.206;2022-09-03T01:16:19;8.75;;;5.65;;
16137;SDS011;8174;43.550;5.206;2022-09-03T01:18:54;9.73;;;6.25;;
16137;SDS011;8174;43.550;5.206;2022-09-03T01:21:40;9.75;;;6.18;;
16137;SDS011;8174;43.550;5.206;2022-09-03T01:24:19;10.52;;;6.65;;
16137;SDS011;8174;43.550;5.206;2022-09-03T01:27:01;9.98;;;5.90;;
16137;SDS011;8174;43.550;5.206;2022-09-03T01:29:33;10.95;;;6.63;;
16137;SDS011;8174;43.550;5.206;2022-09-03T01:32:03;7.05;;;6.18;;
16137;SDS011;8174;43.550;5.206;2022-09-03T01:34:37;10.20;;;6.85;;
16137;SDS011;8174;43.550;5.206;2022-09-03T01:37:10;11.07;;;7.10;;
16137;SDS011;8174;43.550;5.206;2022-09-03T01:39:44;8.38;;;6.65;;
16137;SDS011;8174;43.550;5.206;2022-09-03T01:42:16;8.05;;;6.55;;
16137;SDS011;8174;43.550;5.206;2022-09-03T01:44:58;10.27;;;6.70;;
16137;SDS011;8174;43.550;5.206;2022-09-03T01:47:33;11.30;;;7.18;;
16137;SDS011;8174;43.550;5.206;2022-09-03T01:50:06;8.60;;;7.05;;
16137;SDS011;8174;43.550;5.206;2022-09-03T01:52:39;10.90;;;7.07;;
16137;SDS011;8174;43.550;5.206;2022-09-03T01:55:11;7.43;;;6.55;;
16137;SDS011;8174;43.550;5.206;2022-09-03T01:57:46;10.43;;;6.78;;
16137;SDS011;8174;43.550;5.206;2022-09-03T02:00:17;9.38;;;6.90;;
16137;SDS011;8174;43.550;5.206;2022-09-03T02:02:46;10.35;;;7.00;;
16137;SDS011;8174;43.550;5.206;2022-09-03T02:05:16;9.55;;;7.32;;
16137;SDS011;8174;43.550;5.206;2022-09-03T02:07:45;8.88;;;6.90;;
16137;SDS011;8174;43.550;5.206;2022-09-03T02:10:14;10.05;;;7.25;;
16137;SDS011;8174;43.550;5.206;2022-09-03T02:12:43;12.77;;;6.88;;
16137;SDS011;8174;43.550;5.206;2022-09-03T02:15:15;10.50;;;7.28;;
16137;SDS011;8174;43.550;5.206;2022-09-03T02:17:45;12.50;;;6.95;;
16137;SDS011;8174;43.550;5.206;2022-09-03T02:20:15;10.63;;;7.03;;
16137;SDS011;8174;43.550;5.206;2022-09-03T02:22:46;11.60;;;7.38;;
16137;SDS011;8174;43.550;5.206;2022-09-03T02:25:15;11.18;;;7.03;;
16137;SDS011;8174;43.550;5.206;2022-09-03T02:27:43;10.93;;;7.40;;
16137;SDS011;8174;43.550;5.206;2022-09-03T02:30:12;13.00;;;7.47;;
16137;SDS011;8174;43.550;5.206;2022-09-03T02:32:40;9.65;;;7.68;;
16137;SDS011;8174;43.550;5.206;2022-09-03T02:35:09;10.65;;;7.13;;
16137;SDS011;8174;43.550;5.206;2022-09-03T02:37:37;11.13;;;7.68;;
16137;SDS011;8174;43.550;5.206;2022-09-03T02:40:05;10.02;;;7.13;;
16137;SDS011;8174;43.550;5.206;2022-09-03T02:42:34;13.40;;;7.80;;
16137;SDS011;8174;43.550;5.206;2022-09-03T02:45:03;13.98;;;7.95;;
16137;SDS011;8174;43.550;5.206;2022-09-03T02:47:34;10.23;;;7.25;;
16137;SDS011;8174;43.550;5.206;2022-09-03T02:50:06;8.60;;;7.47;;
16137;SDS011;8174;43.550;5.206;2022-09-03T02:52:36;10.00;;;7.60;;
16137;SDS011;8174;43.550;5.206;2022-09-03T02:55:04;9.75;;;7.78;;
16137;SDS011;8174;43.550;5.206;2022-09-03T02:57:32;11.07;;;7.75;;
16137;SDS011;8174;43.550;5.206;2022-09-03T03:00:00;13.23;;;7.68;;
16137;SDS011;8174;43.550;5.206;2022-09-03T03:02:28;11.52;;;7.80;;
16137;SDS011;8174;43.550;5.206;2022-09-03T03:04:56;8.93;;;7.97;;
16137;SDS011;8174;43.550;5.206;2022-09-03T03:07:24;9.95;;;7.90;;
16137;SDS011;8174;43.550;5.206;2022-09-03T03:09:53;11.52;;;8.73;;
16137;SDS011;8174;43.550;5.206;2022-09-03T03:12:20;12.30;;;7.85;;
16137;SDS011;8174;43.550;5.206;2022-09-03T03:14:48;10.57;;;7.78;;
16137;SDS011;8174;43.550;5.206;2022-09-03T03:17:15;9.73;;;7.90;;
16137;SDS011;8174;43.550;5.206;2022-09-03T03:19:43;16.13;;;8.40;;
16137;SDS011;8174;43.550;5.206;2022-09-03T03:22:10;12.57;;;8.43;;
16137;SDS011;8174;43.550;5.206;2022-09-03T03:24:38;10.40;;;7.72;;
16137;SDS011;8174;43.550;5.206;2022-09-03T03:27:07;11.93;;;7.28;;
16137;SDS011;8174;43.550;5.206;2022-09-03T03:29:35;12.10;;;8.02;;
16137;SDS011;8174;43.550;5.206;2022-09-03T03:32:03;11.63;;;7.07;;
16137;SDS011;8174;43.550;5.206;2022-09-03T03:34:31;8.40;;;6.93;;
16137;SDS011;8174;43.550;5.206;2022-09-03T03:36:59;10.90;;;7.20;;
16137;SDS011;8174;43.550;5.206;2022-09-03T03:39:26;10.20;;;7.20;;
16137;SDS011;8174;43.550;5.206;2022-09-03T03:41:54;9.93;;;6.65;;
16137;SDS011;8174;43.550;5.206;2022-09-03T03:44:23;8.63;;;7.25;;
16137;SDS011;8174;43.550;5.206;2022-09-03T03:46:51;8.82;;;6.95;;
16137;SDS011;8174;43.550;5.206;2022-09-03T03:49:18;8.82;;;6.85;;
16137;SDS011;8174;43.550;5.206;2022-09-03T03:51:46;9.32;;;7.20;;
16137;SDS011;8174;43.550;5.206;2022-09-03T03:54:14;8.63;;;7.28;;
16137;SDS011;8174;43.550;5.206;2022-09-03T03:56:41;11.43;;;7.15;;
16137;SDS011;8174;43.550;5.206;2022-09-03T03:59:09;8.73;;;7.22;;
16137;SDS011;8174;43.550;5.206;2022-09-03T04:01:38;8.95;;;7.00;;
16137;SDS011;8174;43.550;5.206;2022-09-03T04:04:06;10.30;;;7.05;;
16137;SDS011;8174;43.550;5.206;2022-09-03T04:06:33;9.55;;;6.72;;
16137;SDS011;8174;43.550;5.206;2022-09-03T04:09:01;11.70;;;7.18;;
16137;SDS011;8174;43.550;5.206;2022-09-03T04:11:28;8.02;;;6.40;;
16137;SDS011;8174;43.550;5.206;2022-09-03T04:13:56;9.55;;;6.68;;
16137;SDS011;8174;43.550;5.206;2022-09-03T04:16:24;7.47;;;6.68;;
16137;SDS011;8174;43.550;5.206;2022-09-03T04:18:54;8.10;;;6.28;;
16137;SDS011;8174;43.550;5.206;2022-09-03T04:21:22;10.23;;;6.65;;
16137;SDS011;8174;43.550;5.206;2022-09-03T04:23:51;8.60;;;6.80;;
16137;SDS011;8174;43.550;5.206;2022-09-03T04:26:20;8.98;;;6.20;;
16137;SDS011;8174;43.550;5.206;2022-09-03T04:28:47;9.30;;;6.53;;
16137;SDS011;8174;43.550;5.206;2022-09-03T04:31:16;11.65;;;6.50;;
16137;SDS011;8174;43.550;5.206;2022-09-03T04:33:44;8.23;;;6.28;;
16137;SDS011;8174;43.550;5.206;2022-09-03T04:36:14;7.80;;;6.60;;
16137;SDS011;8174;43.550;5.206;2022-09-03T04:38:43;7.85;;;5.88;;
16137;SDS011;8174;43.550;5.206;2022-09-03T04:41:11;10.02;;;6.30;;
16137;SDS011;8174;43.550;5.206;2022-09-03T04:43:39;8.77;;;6.10;;
16137;SDS011;8174;43.550;5.206;2022-09-03T04:46:08;8.55;;;6.05;;
16137;SDS011;8174;43.550;5.206;2022-09-03T04:48:38;9.30;;;5.90;;
16137;SDS011;8174;43.550;5.206;2022-09-03T04:51:06;8.30;;;5.70;;
16137;SDS011;8174;43.550;5.206;2022-09-03T04:53:36;14.77;;;6.07;;
16137;SDS011;8174;43.550;5.206;2022-09-03T04:56:10;9.90;;;6.00;;
16137;SDS011;8174;43.550;5.206;2022-09-03T04:58:38;12.27;;;6.05;;
16137;SDS011;8174;43.550;5.206;2022-09-03T05:01:09;12.13;;;5.80;;
16137;SDS011;8174;43.550;5.206;2022-09-03T05:03:37;9.20;;;6.00;;
16137;SDS011;8174;43.550;5.206;2022-09-03T05:06:05;10.27;;;5.78;;
16137;SDS011;8174;43.550;5.206;2022-09-03T05:08:33;9.15;;;6.03;;
16137;SDS011;8174;43.550;5.206;2022-09-03T05:11:02;10.13;;;5.18;;
16137;SDS011;8174;43.550;5.206;2022-09-03T05:13:30;5.95;;;5.05;;
16137;SDS011;8174;43.550;5.206;2022-09-03T05:15:58;8.80;;;5.65;;
16137;SDS011;8174;43.550;5.206;2022-09-03T05:18:26;8.85;;;5.38;;
16137;SDS011;8174;43.550;5.206;2022-09-03T05:20:58;7.45;;;5.45;;
16137;SDS011;8174;43.550;5.206;2022-09-03T05:23:26;6.90;;;5.28;;
16137;SDS011;8174;43.550;5.206;2022-09-03T05:25:54;9.50;;;5.47;;
16137;SDS011;8174;43.550;5.206;2022-09-03T05:28:24;9.02;;;4.93;;
16137;SDS011;8174;43.550;5.206;2022-09-03T05:30:59;11.77;;;5.10;;
16137;SDS011;8174;43.550;5.206;2022-09-03T05:33:27;7.65;;;4.60;;
16137;SDS011;8174;43.550;5.206;2022-09-03T05:35:59;8.50;;;4.80;;
16137;SDS011;8174;43.550;5.206;2022-09-03T05:38:27;5.82;;;4.28;;
16137;SDS011;8174;43.550;5.206;2022-09-03T05:40:56;7.43;;;4.68;;
16137;SDS011;8174;43.550;5.206;2022-09-03T05:43:26;7.82;;;4.25;;
16137;SDS011;8174;43.550;5.206;2022-09-03T05:45:56;8.73;;;4.53;;
16137;SDS011;8174;43.550;5.206;2022-09-03T05:48:24;6.55;;;4.60;;
16137;SDS011;8174;43.550;5.206;2022-09-03T05:50:57;4.53;;;4.05;;
16137;SDS011;8174;43.550;5.206;2022-09-03T05:53:26;5.80;;;4.30;;
16137;SDS011;8174;43.550;5.206;2022-09-03T05:55:54;5.68;;;3.92;;
16137;SDS011;8174;43.550;5.206;2022-09-03T05:58:22;7.05;;;4.00;;
16137;SDS011;8174;43.550;5.206;2022-09-03T06:00:52;7.47;;;4.00;;
16137;SDS011;8174;43.550;5.206;2022-09-03T06:03:20;5.55;;;3.80;;
16137;SDS011;8174;43.550;5.206;2022-09-03T06:05:50;5.32;;;3.70;;
16137;SDS011;8174;43.550;5.206;2022-09-03T06:08:18;6.75;;;3.95;;
16137;SDS011;8174;43.550;5.206;2022-09-03T06:10:46;6.97;;;3.85;;
16137;SDS011;8174;43.550;5.206;2022-09-03T06:13:13;4.72;;;3.45;;
16137;SDS011;8174;43.550;5.206;2022-09-03T06:15:41;6.93;;;3.17;;
16137;SDS011;8174;43.550;5.206;2022-09-03T06:18:10;9.95;;;3.40;;
16137;SDS011;8174;43.550;5.206;2022-09-03T06:20:37;5.55;;;3.30;;
16137;SDS011;8174;43.550;5.206;2022-09-03T06:23:05;5.90;;;2.97;;
16137;SDS011;8174;43.550;5.206;2022-09-03T06:25:33;5.38;;;2.90;;
16137;SDS011;8174;43.550;5.206;2022-09-03T06:28:00;5.80;;;3.13;;
16137;SDS011;8174;43.550;5.206;2022-09-03T06:30:28;4.85;;;3.13;;
16137;SDS011;8174;43.550;5.206;2022-09-03T06:32:56;6.80;;;3.20;;
16137;SDS011;8174;43.550;5.206;2022-09-03T06:35:24;5.45;;;3.45;;
16137;SDS011;8174;43.550;5.206;2022-09-03T06:37:52;5.28;;;3.33;;
16137;SDS011;8174;43.550;5.206;2022-09-03T06:40:19;8.18;;;3.25;;
16137;SDS011;8174;43.550;5.206;2022-09-03T06:42:54;5.57;;;3.30;;
16137;SDS011;8174;43.550;5.206;2022-09-03T06:45:26;6.97;;;3.25;;
16137;SDS011;8174;43.550;5.206;2022-09-03T06:47:54;3.67;;;3.30;;
16137;SDS011;8174;43.550;5.206;2022-09-03T06:50:21;4.47;;;3.17;;
16137;SDS011;8174;43.550;5.206;2022-09-03T06:52:51;4.78;;;3.20;;
16137;SDS011;8174;43.550;5.206;2022-09-03T06:55:19;5.68;;;3.13;;
16137;SDS011;8174;43.550;5.206;2022-09-03T06:57:47;5.05;;;2.80;;
16137;SDS011;8174;43.550;5.206;2022-09-03T07:00:15;4.60;;;2.90;;
16137;SDS011;8174;43.550;5.206;2022-09-03T07:02:43;6.03;;;3.00;;
16137;SDS011;8174;43.550;5.206;2022-09-03T07:05:12;5.90;;;3.10;;
16137;SDS011;8174;43.550;5.206;2022-09-03T07:07:40;5.15;;;3.20;;
16137;SDS011;8174;43.550;5.206;2022-09-03T07:10:10;4.70;;;3.45;;
16137;SDS011;8174;43.550;5.206;2022-09-03T07:12:40;5.95;;;3.30;;
16137;SDS011;8174;43.550;5.206;2022-09-03T07:15:08;5.90;;;3.10;;
16137;SDS011;8174;43.550;5.206;2022-09-03T07:17:36;5.95;;;3.00;;
16137;SDS011;8174;43.550;5.206;2022-09-03T07:23:09;8.32;;;3.30;;
16137;SDS011;8174;43.550;5.206;2022-09-03T07:25:38;5.63;;;3.00;;
16137;SDS011;8174;43.550;5.206;2022-09-03T07:28:06;6.85;;;3.40;;
16137;SDS011;8174;43.550;5.206;2022-09-03T07:30:33;5.97;;;3.10;;
16137;SDS011;8174;43.550;5.206;2022-09-03T07:33:01;5.22;;;3.30;;
16137;SDS011;8174;43.550;5.206;2022-09-03T07:35:28;5.35;;;3.03;;
16137;SDS011;8174;43.550;5.206;2022-09-03T07:37:56;4.90;;;3.28;;
16137;SDS011;8174;43.550;5.206;2022-09-03T07:40:23;7.78;;;3.33;;
16137;SDS011;8174;43.550;5.206;2022-09-03T07:42:56;6.10;;;3.58;;
16137;SDS011;8174;43.550;5.206;2022-09-03T07:45:28;4.88;;;3.08;;
16137;SDS011;8174;43.550;5.206;2022-09-03T07:47:57;5.50;;;3.60;;
16137;SDS011;8174;43.550;5.206;2022-09-03T07:50:28;9.77;;;3.47;;
16137;SDS011;8174;43.550;5.206;2022-09-03T07:53:02;7.43;;;3.20;;
16137;SDS011;8174;43.550;5.206;2022-09-03T07:55:30;7.25;;;3.70;;
16137;SDS011;8174;43.550;5.206;2022-09-03T07:58:02;5.50;;;3.20;;
16137;SDS011;8174;43.550;5.206;2022-09-03T08:00:30;10.07;;;3.60;;
16137;SDS011;8174;43.550;5.206;2022-09-03T08:02:58;6.50;;;3.38;;
16137;SDS011;8174;43.550;5.206;2022-09-03T08:05:31;4.55;;;3.22;;
16137;SDS011;8174;43.550;5.206;2022-09-03T08:07:59;3.92;;;3.30;;
16137;SDS011;8174;43.550;5.206;2022-09-03T08:10:27;6.32;;;3.50;;
16137;SDS011;8174;43.550;5.206;2022-09-03T08:12:55;5.70;;;3.00;;
16137;SDS011;8174;43.550;5.206;2022-09-03T08:15:24;6.50;;;3.38;;
16137;SDS011;8174;43.550;5.206;2022-09-03T08:17:52;7.90;;;3.55;;
16137;SDS011;8174;43.550;5.206;2022-09-03T08:20:19;9.23;;;2.92;;
16137;SDS011;8174;43.550;5.206;2022-09-03T08:22:47;7.38;;;2.95;;
16137;SDS011;8174;43.550;5.206;2022-09-03T08:25:15;5.45;;;3.03;;
16137;SDS011;8174;43.550;5.206;2022-09-03T08:27:42;5.85;;;3.35;;
16137;SDS011;8174;43.550;5.206;2022-09-03T08:30:10;8.80;;;3.42;;
16137;SDS011;8174;43.550;5.206;2022-09-03T08:32:39;7.28;;;4.10;;
16137;SDS011;8174;43.550;5.206;2022-09-03T08:35:07;5.82;;;2.90;;
16137;SDS011;8174;43.550;5.206;2022-09-03T08:37:35;7.55;;;3.60;;
16137;SDS011;8174;43.550;5.206;2022-09-03T08:40:03;7.15;;;2.60;;
16137;SDS011;8174;43.550;5.206;2022-09-03T08:42:38;5.78;;;2.42;;
16137;SDS011;8174;43.550;5.206;2022-09-03T08:45:09;6.30;;;2.40;;
16137;SDS011;8174;43.550;5.206;2022-09-03T08:47:43;6.38;;;2.40;;
16137;SDS011;8174;43.550;5.206;2022-09-03T08:50:14;7.40;;;3.05;;
16137;SDS011;8174;43.550;5.206;2022-09-03T08:52:44;5.82;;;2.28;;
16137;SDS011;8174;43.550;5.206;2022-09-03T08:55:18;7.85;;;2.70;;
16137;SDS011;8174;43.550;5.206;2022-09-03T08:57:47;6.35;;;2.90;;
16137;SDS011;8174;43.550;5.206;2022-09-03T09:00:15;5.72;;;2.13;;
16137;SDS011;8174;43.550;5.206;2022-09-03T09:02:47;6.25;;;2.33;;
16137;SDS011;8174;43.550;5.206;2022-09-03T09:05:21;6.78;;;2.20;;
16137;SDS011;8174;43.550;5.206;2022-09-03T09:07:55;5.55;;;3.08;;
16137;SDS011;8174;43.550;5.206;2022-09-03T09:10:29;6.05;;;2.22;;
16137;SDS011;8174;43.550;5.206;2022-09-03T09:13:04;6.28;;;2.28;;
16137;SDS011;8174;43.550;5.206;2022-09-03T09:15:39;7.88;;;2.58;;
16137;SDS011;8174;43.550;5.206;2022-09-03T09:18:12;5.68;;;2.60;;
16137;SDS011;8174;43.550;5.206;2022-09-03T09:20:44;5.75;;;2.40;;
16137;SDS011;8174;43.550;5.206;2022-09-03T09:23:16;17.33;;;2.65;;
16137;SDS011;8174;43.550;5.206;2022-09-03T09:25:46;4.28;;;2.30;;
16137;SDS011;8174;43.550;5.206;2022-09-03T09:28:16;7.22;;;2.47;;
16137;SDS011;8174;43.550;5.206;2022-09-03T09:30:44;6.45;;;2.45;;
16137;SDS011;8174;43.550;5.206;2022-09-03T09:33:13;6.28;;;2.40;;
16137;SDS011;8174;43.550;5.206;2022-09-03T09:35:41;7.60;;;2.30;;
16137;SDS011;8174;43.550;5.206;2022-09-03T09:38:09;6.30;;;2.40;;
16137;SDS011;8174;43.550;5.206;2022-09-03T09:40:37;6.53;;;2.75;;
16137;SDS011;8174;43.550;5.206;2022-09-03T09:43:07;7.20;;;2.75;;
16137;SDS011;8174;43.550;5.206;2022-09-03T09:45:35;6.72;;;2.92;;
16137;SDS011;8174;43.550;5.206;2022-09-03T09:48:05;5.32;;;2.35;;
16137;SDS011;8174;43.550;5.206;2022-09-03T09:50:36;8.70;;;2.60;;
16137;SDS011;8174;43.550;5.206;2022-09-03T09:53:06;5.50;;;2.20;;
16137;SDS011;8174;43.550;5.206;2022-09-03T09:58:24;8.07;;;3.00;;
16137;SDS011;8174;43.550;5.206;2022-09-03T10:00:59;5.65;;;2.80;;
16137;SDS011;8174;43.550;5.206;2022-09-03T10:03:28;6.88;;;2.95;;
16137;SDS011;8174;43.550;5.206;2022-09-03T10:06:04;7.95;;;3.15;;
16137;SDS011;8174;43.550;5.206;2022-09-03T10:08:50;8.10;;;3.25;;
16137;SDS011;8174;43.550;5.206;2022-09-03T10:11:19;7.85;;;3.08;;
16137;SDS011;8174;43.550;5.206;2022-09-03T10:13:49;7.72;;;3.42;;
16137;SDS011;8174;43.550;5.206;2022-09-03T10:16:20;7.63;;;2.80;;
16137;SDS011;8174;43.550;5.206;2022-09-03T10:18:51;6.60;;;3.10;;
16137;SDS011;8174;43.550;5.206;2022-09-03T10:21:22;8.60;;;3.38;;
16137;SDS011;8174;43.550;5.206;2022-09-03T10:23:53;7.68;;;3.10;;
16137;SDS011;8174;43.550;5.206;2022-09-03T10:26:22;6.95;;;2.80;;
16137;SDS011;8174;43.550;5.206;2022-09-03T10:28:55;10.02;;;2.95;;
16137;SDS011;8174;43.550;5.206;2022-09-03T10:31:35;8.77;;;2.95;;
16137;SDS011;8174;43.550;5.206;2022-09-03T10:34:06;9.10;;;2.95;;
16137;SDS011;8174;43.550;5.206;2022-09-03T10:36:38;7.80;;;2.95;;
16137;SDS011;8174;43.550;5.206;2022-09-03T10:39:08;10.45;;;3.22;;
16137;SDS011;8174;43.550;5.206;2022-09-03T10:41:41;7.45;;;2.92;;
16137;SDS011;8174;43.550;5.206;2022-09-03T10:44:22;5.75;;;2.90;;
16137;SDS011;8174;43.550;5.206;2022-09-03T10:46:55;6.90;;;2.72;;
16137;SDS011;8174;43.550;5.206;2022-09-03T10:49:33;10.77;;;3.70;;
16137;SDS011;8174;43.550;5.206;2022-09-03T10:52:06;6.22;;;3.00;;
16137;SDS011;8174;43.550;5.206;2022-09-03T10:54:38;8.73;;;3.00;;
16137;SDS011;8174;43.550;5.206;2022-09-03T10:57:14;5.88;;;2.80;;
16137;SDS011;8174;43.550;5.206;2022-09-03T10:59:48;4.43;;;2.88;;
16137;SDS011;8174;43.550;5.206;2022-09-03T11:02:31;6.70;;;2.97;;
16137;SDS011;8174;43.550;5.206;2022-09-03T11:05:01;7.03;;;2.70;;
16137;SDS011;8174;43.550;5.206;2022-09-03T11:07:34;11.52;;;2.85;;
16137;SDS011;8174;43.550;5.206;2022-09-03T11:10:06;9.15;;;3.33;;
16137;SDS011;8174;43.550;5.206;2022-09-03T11:12:37;6.22;;;2.70;;
16137;SDS011;8174;43.550;5.206;2022-09-03T11:15:08;6.63;;;2.85;;
16137;SDS011;8174;43.550;5.206;2022-09-03T11:17:39;5.88;;;2.78;;
16137;SDS011;8174;43.550;5.206;2022-09-03T11:20:10;10.95;;;3.00;;
16137;SDS011;8174;43.550;5.206;2022-09-03T11:22:40;9.70;;;2.97;;
16137;SDS011;8174;43.550;5.206;2022-09-03T11:25:09;7.20;;;2.50;;
16137;SDS011;8174;43.550;5.206;2022-09-03T11:27:44;6.60;;;3.03;;
16137;SDS011;8174;43.550;5.206;2022-09-03T11:30:14;8.05;;;2.30;;
16137;SDS011;8174;43.550;5.206;2022-09-03T11:32:48;5.75;;;2.35;;
16137;SDS011;8174;43.550;5.206;2022-09-03T11:35:23;7.38;;;2.72;;
16137;SDS011;8174;43.550;5.206;2022-09-03T11:37:57;8.13;;;2.90;;
16137;SDS011;8174;43.550;5.206;2022-09-03T11:40:31;5.72;;;2.70;;
16137;SDS011;8174;43.550;5.206;2022-09-03T11:43:06;4.90;;;2.40;;
16137;SDS011;8174;43.550;5.206;2022-09-03T11:45:36;8.35;;;3.00;;
16137;SDS011;8174;43.550;5.206;2022-09-03T11:48:16;6.47;;;2.78;;
16137;SDS011;8174;43.550;5.206;2022-09-03T11:50:51;7.95;;;2.58;;
16137;SDS011;8174;43.550;5.206;2022-09-03T11:53:24;7.85;;;2.78;;
16137;SDS011;8174;43.550;5.206;2022-09-03T11:55:55;10.48;;;2.95;;
16137;SDS011;8174;43.550;5.206;2022-09-03T11:58:24;9.75;;;2.95;;
16137;SDS011;8174;43.550;5.206;2022-09-03T12:00:52;7.93;;;2.65;;
16137;SDS011;8174;43.550;5.206;2022-09-03T12:03:22;8.70;;;2.83;;
16137;SDS011;8174;43.550;5.206;2022-09-03T12:05:59;10.30;;;2.60;;
16137;SDS011;8174;43.550;5.206;2022-09-03T12:11:23;7.45;;;2.80;;
16137;SDS011;8174;43.550;5.206;2022-09-03T12:13:56;8.02;;;2.60;;
16137;SDS011;8174;43.550;5.206;2022-09-03T12:16:37;6.25;;;2.92;;
16137;SDS011;8174;43.550;5.206;2022-09-03T12:19:09;6.32;;;2.95;;
16137;SDS011;8174;43.550;5.206;2022-09-03T12:21:38;6.45;;;2.60;;
16137;SDS011;8174;43.550;5.206;2022-09-03T12:24:06;8.75;;;2.58;;
16137;SDS011;8174;43.550;5.206;2022-09-03T12:26:39;6.63;;;2.67;;
16137;SDS011;8174;43.550;5.206;2022-09-03T12:29:19;8.02;;;3.17;;
16137;SDS011;8174;43.550;5.206;2022-09-03T12:31:47;6.47;;;2.70;;
16137;SDS011;8174;43.550;5.206;2022-09-03T12:34:16;10.70;;;2.90;;
16137;SDS011;8174;43.550;5.206;2022-09-03T12:36:46;6.07;;;2.85;;
16137;SDS011;8174;43.550;5.206;2022-09-03T12:39:16;6.65;;;2.67;;
16137;SDS011;8174;43.550;5.206;2022-09-03T12:41:59;7.82;;;2.80;;
16137;SDS011;8174;43.550;5.206;2022-09-03T12:44:29;7.55;;;2.80;;
16137;SDS011;8174;43.550;5.206;2022-09-03T12:47:00;9.85;;;3.08;;
16137;SDS011;8174;43.550;5.206;2022-09-03T12:49:33;7.07;;;3.08;;
16137;SDS011;8174;43.550;5.206;2022-09-03T12:52:04;7.40;;;3.28;;
16137;SDS011;8174;43.550;5.206;2022-09-03T12:54:35;5.40;;;3.35;;
16137;SDS011;8174;43.550;5.206;2022-09-03T12:57:06;8.98;;;3.30;;
16137;SDS011;8174;43.550;5.206;2022-09-03T12:59:35;8.50;;;3.08;;
16137;SDS011;8174;43.550;5.206;2022-09-03T13:02:05;10.15;;;3.20;;
16137;SDS011;8174;43.550;5.206;2022-09-03T13:04:38;9.10;;;3.85;;
16137;SDS011;8174;43.550;5.206;2022-09-03T13:07:06;10.40;;;3.40;;
16137;SDS011;8174;43.550;5.206;2022-09-03T13:09:37;7.68;;;3.25;;
16137;SDS011;8174;43.550;5.206;2022-09-03T13:12:07;9.27;;;3.35;;
16137;SDS011;8174;43.550;5.206;2022-09-03T13:14:47;9.73;;;3.50;;
16137;SDS011;8174;43.550;5.206;2022-09-03T13:17:24;7.85;;;3.10;;
16137;SDS011;8174;43.550;5.206;2022-09-03T13:20:02;8.05;;;3.10;;
16137;SDS011;8174;43.550;5.206;2022-09-03T13:22:34;6.07;;;2.53;;
16137;SDS011;8174;43.550;5.206;2022-09-03T13:25:14;6.50;;;2.97;;
16137;SDS011;8174;43.550;5.206;2022-09-03T13:27:51;6.07;;;3.00;;
16137;SDS011;8174;43.550;5.206;2022-09-03T13:30:20;9.15;;;3.28;;
16137;SDS011;8174;43.550;5.206;2022-09-03T13:32:54;6.10;;;3.30;;
16137;SDS011;8174;43.550;5.206;2022-09-03T13:35:25;8.75;;;3.20;;
16137;SDS011;8174;43.550;5.206;2022-09-03T13:37:55;7.10;;;3.20;;
16137;SDS011;8174;43.550;5.206;2022-09-03T13:40:24;7.72;;;2.80;;
16137;SDS011;8174;43.550;5.206;2022-09-03T13:42:56;6.55;;;2.60;;
16137;SDS011;8174;43.550;5.206;2022-09-03T13:45:28;6.15;;;2.75;;
16137;SDS011;8174;43.550;5.206;2022-09-03T13:47:58;6.38;;;2.90;;
16137;SDS011;8174;43.550;5.206;2022-09-03T13:50:46;5.82;;;2.90;;
16137;SDS011;8174;43.550;5.206;2022-09-03T13:53:16;6.55;;;2.80;;
16137;SDS011;8174;43.550;5.206;2022-09-03T13:55:47;9.05;;;3.08;;
16137;SDS011;8174;43.550;5.206;2022-09-03T13:58:20;9.40;;;2.78;;
16137;SDS011;8174;43.550;5.206;2022-09-03T14:00:51;7.65;;;2.50;;
16137;SDS011;8174;43.550;5.206;2022-09-03T14:03:23;5.20;;;2.47;;
16137;SDS011;8174;43.550;5.206;2022-09-03T14:05:55;6.53;;;2.75;;
16137;SDS011;8174;43.550;5.206;2022-09-03T14:08:29;7.63;;;2.80;;
16137;SDS011;8174;43.550;5.206;2022-09-03T14:11:01;5.38;;;2.83;;
16137;SDS011;8174;43.550;5.206;2022-09-03T14:13:35;5.22;;;2.65;;
16137;SDS011;8174;43.550;5.206;2022-09-03T14:16:05;7.25;;;2.80;;
16137;SDS011;8174;43.550;5.206;2022-09-03T14:18:40;8.80;;;2.90;;
16137;SDS011;8174;43.550;5.206;2022-09-03T14:21:09;8.02;;;2.30;;
16137;SDS011;8174;43.550;5.206;2022-09-03T14:23:41;8.68;;;2.60;;
16137;SDS011;8174;43.550;5.206;2022-09-03T14:26:14;9.23;;;2.83;;
16137;SDS011;8174;43.550;5.206;2022-09-03T14:28:45;8.50;;;2.63;;
16137;SDS011;8174;43.550;5.206;2022-09-03T14:31:15;6.47;;;2.88;;
16137;SDS011;8174;43.550;5.206;2022-09-03T14:33:50;6.60;;;3.20;;
16137;SDS011;8174;43.550;5.206;2022-09-03T14:36:21;7.35;;;2.70;;
16137;SDS011;8174;43.550;5.206;2022-09-03T14:39:02;6.45;;;2.65;;
16137;SDS011;8174;43.550;5.206;2022-09-03T14:44:36;5.15;;;2.50;;
16137;SDS011;8174;43.550;5.206;2022-09-03T14:47:14;5.05;;;2.30;;
16137;SDS011;8174;43.550;5.206;2022-09-03T14:49:57;5.35;;;2.25;;
16137;SDS011;8174;43.550;5.206;2022-09-03T14:52:32;5.65;;;2.45;;
16137;SDS011;8174;43.550;5.206;2022-09-03T14:55:12;6.18;;;2.35;;
16137;SDS011;8174;43.550;5.206;2022-09-03T14:57:44;6.03;;;2.50;;
16137;SDS011;8174;43.550;5.206;2022-09-03T15:00:16;6.07;;;2.40;;
16137;SDS011;8174;43.550;5.206;2022-09-03T15:02:47;5.15;;;2.20;;
16137;SDS011;8174;43.550;5.206;2022-09-03T15:05:19;7.88;;;2.75;;
16137;SDS011;8174;43.550;5.206;2022-09-03T15:07:48;7.03;;;2.33;;
16137;SDS011;8174;43.550;5.206;2022-09-03T15:10:20;6.05;;;2.40;;
16137;SDS011;8174;43.550;5.206;2022-09-03T15:12:52;5.55;;;2.40;;
16137;SDS011;8174;43.550;5.206;2022-09-03T15:15:23;7.38;;;2.85;;
16137;SDS011;8174;43.550;5.206;2022-09-03T15:17:54;9.98;;;2.53;;
16137;SDS011;8174;43.550;5.206;2022-09-03T15:20:32;9.80;;;2.55;;
16137;SDS011;8174;43.550;5.206;2022-09-03T15:23:16;7.68;;;2.60;;
16137;SDS011;8174;43.550;5.206;2022-09-03T15:28:32;9.75;;;3.05;;
16137;SDS011;8174;43.550;5.206;2022-09-03T15:31:08;7.55;;;2.50;;
16137;SDS011;8174;43.550;5.206;2022-09-03T15:33:38;10.48;;;2.97;;
16137;SDS011;8174;43.550;5.206;2022-09-03T15:36:11;8.15;;;2.58;;